createdAt,value
2023-01-17T00:01:30.599Z,4.20
2023-01-17T00:04:15.522Z,4.03
2023-01-17T00:07:02.746Z,5.80
2023-01-17T00:09:48.354Z,7.70
2023-01-17T00:12:16.446Z,6.83
2023-01-17T00:14:45.434Z,6.67
2023-01-17T00:17:13.875Z,6.50
2023-01-17T00:19:59.687Z,6.33
2023-01-17T00:22:48.167Z,6.13
2023-01-17T00:25:35.165Z,5.13
2023-01-17T00:28:02.416Z,5.83
2023-01-17T00:30:29.510Z,5.10
2023-01-17T00:32:56.534Z,4.77
2023-01-17T00:35:25.501Z,6.20
2023-01-17T00:38:02.652Z,5.60
2023-01-17T00:40:29.636Z,4.93
2023-01-17T00:43:14.930Z,5.50
2023-01-17T00:46:01.811Z,5.00
2023-01-17T00:48:47.261Z,3.90
2023-01-17T00:51:33.237Z,4.37
2023-01-17T00:54:20.234Z,4.73
2023-01-17T00:57:05.975Z,5.27
2023-01-17T00:59:51.477Z,5.50
2023-01-17T01:02:37.140Z,5.77
2023-01-17T01:05:23.291Z,6.60
2023-01-17T01:08:09.230Z,6.67
2023-01-17T01:10:56.071Z,5.83
2023-01-17T01:13:43.825Z,5.03
2023-01-17T01:16:29.838Z,6.70
2023-01-17T01:19:15.512Z,4.13
2023-01-17T01:22:43.775Z,6.40
2023-01-17T01:25:29.050Z,7.03
2023-01-17T01:28:24.105Z,8.13
2023-01-17T01:31:09.590Z,6.80
2023-01-17T01:33:37.675Z,6.83
2023-01-17T01:36:09.191Z,6.27
2023-01-17T01:38:37.241Z,6.63
2023-01-17T01:41:05.490Z,7.57
2023-01-17T01:43:45.688Z,8.60
2023-01-17T01:46:17.407Z,7.80
2023-01-17T01:48:51.209Z,8.13
2023-01-17T01:51:23.840Z,7.67
2023-01-17T01:53:55.474Z,7.03
2023-01-17T01:56:24.424Z,7.77
2023-01-17T01:58:54.771Z,4.93
2023-01-17T02:01:22.873Z,6.47
2023-01-17T02:03:51.425Z,5.93
2023-01-17T02:06:30.340Z,7.60
2023-01-17T02:09:03.592Z,6.73
2023-01-17T02:11:32.964Z,6.80
2023-01-17T02:14:02.507Z,7.00
2023-01-17T02:16:45.485Z,7.47
2023-01-17T02:19:45.938Z,6.93
2023-01-17T02:22:34.557Z,7.50
2023-01-17T02:25:26.665Z,6.60
2023-01-17T02:28:11.290Z,7.10
2023-01-17T02:30:45.573Z,7.47
2023-01-17T02:33:23.027Z,6.93
2023-01-17T02:35:59.634Z,6.30
2023-01-17T02:38:38.295Z,6.70
2023-01-17T02:41:10.269Z,5.77
2023-01-17T02:43:39.723Z,4.87
2023-01-17T02:46:09.980Z,5.10
2023-01-17T02:48:39.822Z,7.73
2023-01-17T02:51:24.877Z,7.87
2023-01-17T02:54:17.827Z,7.20
2023-01-17T02:56:54.830Z,3.90
2023-01-17T02:59:38.905Z,9.50
2023-01-17T03:02:16.202Z,12.37
2023-01-17T03:04:50.563Z,11.37
2023-01-17T03:07:22.659Z,17.03
2023-01-17T03:09:53.672Z,10.77
2023-01-17T03:12:22.060Z,9.50
2023-01-17T03:14:50.095Z,10.83
2023-01-17T03:17:19.716Z,9.43
2023-01-17T03:19:47.797Z,9.73
2023-01-17T03:22:15.972Z,9.17
2023-01-17T03:24:44.073Z,7.93
2023-01-17T03:27:12.069Z,10.73
2023-01-17T03:29:40.115Z,8.27
2023-01-17T03:32:08.085Z,8.57
2023-01-17T03:34:37.436Z,11.87
2023-01-17T03:37:05.423Z,13.20
2023-01-17T03:39:33.426Z,11.23
2023-01-17T03:42:01.451Z,10.60
2023-01-17T03:44:29.477Z,10.23
2023-01-17T03:46:57.617Z,12.60
2023-01-17T03:49:25.725Z,11.87
2023-01-17T03:51:55.167Z,12.00
2023-01-17T03:54:23.219Z,11.77
2023-01-17T03:56:51.675Z,13.20
2023-01-17T03:59:19.607Z,13.47
2023-01-17T04:01:47.750Z,12.60
2023-01-17T04:04:16.131Z,12.07
2023-01-17T04:06:44.173Z,11.03
2023-01-17T04:09:13.544Z,9.83
2023-01-17T04:11:41.491Z,10.23
2023-01-17T04:14:09.467Z,11.07
2023-01-17T04:16:39.393Z,10.37
2023-01-17T04:19:07.363Z,10.83
2023-01-17T04:21:35.316Z,6.10
2023-01-17T04:24:03.319Z,9.53
2023-01-17T04:26:32.691Z,12.53
2023-01-17T04:29:00.632Z,11.73
2023-01-17T04:31:28.677Z,11.37
2023-01-17T04:33:56.718Z,11.97
2023-01-17T04:36:24.806Z,10.77
2023-01-17T04:38:52.907Z,11.23
2023-01-17T04:41:21.024Z,9.97
2023-01-17T04:43:50.410Z,6.50
2023-01-17T04:46:18.630Z,11.23
2023-01-17T04:48:46.663Z,10.43
2023-01-17T04:51:14.605Z,17.33
2023-01-17T04:53:42.629Z,11.87
2023-01-17T04:56:10.750Z,10.77
2023-01-17T04:58:38.713Z,11.10
2023-01-17T05:01:10.002Z,8.13
2023-01-17T05:03:38.301Z,9.77
2023-01-17T05:06:06.576Z,10.73
2023-01-17T05:08:34.727Z,9.73
2023-01-17T05:11:02.830Z,10.80
2023-01-17T05:13:30.938Z,11.17
2023-01-17T05:15:59.583Z,9.77
2023-01-17T05:18:29.079Z,11.07
2023-01-17T05:21:02.576Z,9.57
2023-01-17T05:23:30.704Z,10.60
2023-01-17T05:25:58.686Z,10.90
2023-01-17T05:28:26.797Z,11.17
2023-01-17T05:30:54.789Z,10.73
2023-01-17T05:33:22.791Z,9.97
2023-01-17T05:35:52.256Z,9.47
2023-01-17T05:38:20.306Z,10.80
2023-01-17T05:40:48.295Z,9.60
2023-01-17T05:43:16.616Z,10.03
2023-01-17T05:45:44.625Z,9.23
2023-01-17T05:48:12.756Z,9.90
2023-01-17T05:50:40.862Z,9.03
2023-01-17T05:53:12.721Z,9.30
2023-01-17T05:55:41.608Z,9.63
2023-01-17T05:58:14.844Z,9.23
2023-01-17T06:00:43.398Z,8.97
2023-01-17T06:03:11.716Z,8.90
2023-01-17T06:05:39.851Z,7.17
2023-01-17T06:08:08.514Z,6.03
2023-01-17T06:10:37.995Z,6.40
2023-01-17T06:13:08.873Z,6.03
2023-01-17T06:15:38.044Z,7.20
2023-01-17T06:18:07.522Z,6.00
2023-01-17T06:20:35.670Z,7.53
2023-01-17T06:23:05.017Z,8.23
2023-01-17T06:25:39.249Z,8.33
2023-01-17T06:28:07.604Z,8.20
2023-01-17T06:30:35.835Z,8.70
2023-01-17T06:33:03.878Z,8.57
2023-01-17T06:35:32.067Z,9.77
2023-01-17T06:38:00.585Z,8.97
2023-01-17T06:40:29.874Z,10.20
2023-01-17T06:43:02.713Z,10.77
2023-01-17T06:45:31.412Z,9.87
2023-01-17T06:48:00.777Z,9.93
2023-01-17T06:50:28.900Z,9.77
2023-01-17T06:52:57.744Z,11.47
2023-01-17T06:55:28.761Z,10.57
2023-01-17T06:57:57.350Z,9.80
2023-01-17T07:00:27.697Z,10.13
2023-01-17T07:02:55.859Z,9.90
2023-01-17T07:05:23.998Z,9.43
2023-01-17T07:07:52.014Z,6.73
2023-01-17T07:10:20.104Z,10.73
2023-01-17T07:12:48.187Z,8.70
2023-01-17T07:15:16.250Z,9.67
2023-01-17T07:17:45.921Z,8.93
2023-01-17T07:20:14.629Z,9.20
2023-01-17T07:22:46.031Z,5.97
2023-01-17T07:25:14.007Z,7.83
2023-01-17T07:27:42.083Z,7.00
2023-01-17T07:30:11.535Z,7.23
2023-01-17T07:32:39.753Z,8.53
2023-01-17T07:35:10.144Z,7.77
2023-01-17T07:37:39.142Z,7.67
2023-01-17T07:40:08.384Z,6.27
2023-01-17T07:42:36.502Z,7.07
2023-01-17T07:45:04.916Z,5.30
2023-01-17T07:47:34.069Z,6.77
2023-01-17T07:50:02.881Z,7.27
2023-01-17T07:52:32.389Z,6.50
2023-01-17T07:55:00.404Z,6.33
2023-01-17T07:57:28.508Z,3.50
2023-01-17T07:59:56.445Z,7.20
2023-01-17T08:02:25.155Z,6.00
2023-01-17T08:04:53.137Z,7.23
2023-01-17T08:07:21.139Z,9.97
2023-01-17T08:09:50.744Z,10.33
2023-01-17T08:12:18.975Z,9.33
2023-01-17T08:14:47.055Z,9.40
2023-01-17T08:17:17.734Z,12.40
2023-01-17T08:19:45.921Z,9.80
2023-01-17T08:22:13.993Z,11.20
2023-01-17T08:24:42.217Z,7.47
2023-01-17T08:27:12.086Z,8.20
2023-01-17T08:29:46.916Z,6.73
2023-01-17T08:32:14.935Z,7.47
2023-01-17T08:34:43.548Z,7.97
2023-01-17T08:37:11.566Z,7.28
2023-01-17T08:39:39.786Z,5.77
2023-01-17T08:42:08.175Z,6.30
2023-01-17T08:44:38.678Z,6.27
2023-01-17T08:47:07.079Z,5.20
2023-01-17T08:49:35.040Z,4.67
2023-01-17T08:52:03.014Z,6.23
2023-01-17T08:54:30.976Z,6.03
2023-01-17T08:56:59.009Z,3.67
2023-01-17T08:59:27.055Z,4.07
2023-01-17T09:01:58.407Z,3.10
2023-01-17T09:04:26.649Z,3.50
2023-01-17T09:06:54.767Z,3.03
2023-01-17T09:09:22.865Z,6.23
2023-01-17T09:11:50.884Z,3.63
2023-01-17T09:14:19.236Z,5.93
2023-01-17T09:16:48.654Z,3.23
2023-01-17T09:19:18.127Z,3.30
2023-01-17T09:21:46.184Z,5.00
2023-01-17T09:24:14.382Z,4.47
2023-01-17T09:26:42.342Z,5.10
2023-01-17T09:29:10.393Z,4.90
2023-01-17T09:31:38.339Z,5.93
2023-01-17T09:34:06.272Z,7.10
2023-01-17T09:36:35.758Z,6.40
2023-01-17T09:39:05.452Z,4.47
2023-01-17T09:41:35.873Z,2.50
2023-01-17T09:44:24.627Z,2.50
2023-01-17T09:46:54.812Z,2.17
2023-01-17T09:49:33.754Z,1.90
2023-01-17T09:52:04.363Z,2.50
2023-01-17T09:54:36.876Z,2.00
2023-01-17T09:57:16.240Z,2.33
2023-01-17T10:00:03.005Z,2.90
2023-01-17T10:02:46.851Z,3.70
2023-01-17T10:05:36.638Z,3.60
2023-01-17T10:08:16.137Z,3.73
2023-01-17T10:10:54.004Z,4.17
2023-01-17T10:13:37.671Z,4.37
2023-01-17T10:16:29.223Z,3.90
2023-01-17T10:19:13.269Z,4.67
2023-01-17T10:21:55.826Z,3.93
2023-01-17T10:24:49.959Z,4.50
2023-01-17T10:27:25.527Z,3.03
2023-01-17T10:29:54.221Z,2.83
2023-01-17T10:32:26.528Z,2.30
2023-01-17T10:34:54.929Z,2.80
2023-01-17T10:37:26.967Z,2.63
2023-01-17T10:40:03.745Z,2.47
2023-01-17T10:42:43.827Z,2.70
2023-01-17T10:45:20.876Z,2.60
2023-01-17T10:47:59.156Z,2.70
2023-01-17T10:50:29.960Z,2.93
2023-01-17T10:53:07.789Z,2.25
2023-01-17T10:55:45.212Z,2.53
2023-01-17T10:58:14.125Z,3.13
2023-01-17T11:00:49.038Z,2.60
2023-01-17T11:03:20.875Z,3.20
2023-01-17T11:06:16.409Z,6.17
2023-01-17T11:08:51.992Z,4.97
2023-01-17T11:11:23.207Z,4.75
2023-01-17T11:13:53.295Z,4.30
2023-01-17T11:16:25.491Z,4.20
2023-01-17T11:19:08.641Z,3.30
2023-01-17T11:21:39.211Z,3.00
2023-01-17T11:24:12.695Z,2.47
2023-01-17T11:26:49.581Z,2.57
2023-01-17T11:29:31.440Z,2.83
2023-01-17T11:32:26.163Z,2.67
2023-01-17T11:35:16.590Z,4.13
2023-01-17T11:37:59.634Z,4.25
2023-01-17T11:40:30.767Z,3.37
2023-01-17T11:43:19.773Z,3.78
2023-01-17T11:46:00.877Z,3.22
2023-01-17T11:48:36.063Z,3.43
2023-01-17T11:51:05.409Z,15.27
2023-01-17T11:53:36.296Z,4.60
2023-01-17T11:56:07.109Z,4.07
2023-01-17T11:58:39.722Z,5.33
2023-01-17T12:01:34.232Z,4.83
2023-01-17T12:04:29.873Z,6.00
2023-01-17T12:07:10.950Z,5.10
2023-01-17T12:09:43.902Z,4.72
2023-01-17T12:12:39.746Z,3.70
2023-01-17T12:15:22.971Z,4.00
2023-01-17T12:18:09.119Z,4.10
2023-01-17T12:20:47.408Z,4.28
2023-01-17T12:23:28.812Z,4.50
2023-01-17T12:26:08.138Z,5.00
2023-01-17T12:28:58.754Z,5.38
2023-01-17T12:31:35.311Z,18.83
2023-01-17T12:34:15.564Z,5.03
2023-01-17T12:36:49.670Z,4.68
2023-01-17T12:39:26.264Z,5.53
2023-01-17T12:42:02.025Z,4.30
2023-01-17T12:44:41.281Z,4.80
2023-01-17T12:47:11.644Z,4.37
2023-01-17T12:49:47.026Z,3.90
2023-01-17T12:52:22.743Z,4.53
2023-01-17T12:54:54.679Z,5.30
2023-01-17T12:57:26.587Z,6.25
2023-01-17T13:00:03.102Z,5.47
2023-01-17T13:02:38.993Z,4.90
2023-01-17T13:05:12.995Z,6.18
2023-01-17T13:07:47.575Z,6.38
2023-01-17T13:10:35.401Z,5.18
2023-01-17T13:13:15.463Z,6.13
2023-01-17T13:15:44.893Z,5.13
2023-01-17T13:18:22.840Z,4.40
2023-01-17T13:21:06.202Z,4.82
2023-01-17T13:23:56.008Z,7.05
2023-01-17T13:26:39.284Z,5.55
2023-01-17T13:29:17.973Z,6.38
2023-01-17T13:31:48.503Z,5.93
2023-01-17T13:34:50.100Z,5.45
2023-01-17T13:37:57.186Z,4.75
2023-01-17T13:40:37.224Z,3.17
2023-01-17T13:43:07.332Z,3.90
2023-01-17T13:45:37.366Z,4.00
2023-01-17T13:48:27.850Z,4.07
2023-01-17T13:50:58.363Z,2.95
2023-01-17T13:53:58.862Z,3.73
2023-01-17T13:56:34.739Z,4.37
2023-01-17T13:59:27.560Z,4.53
2023-01-17T14:01:56.622Z,3.65
2023-01-17T14:04:26.409Z,3.78
2023-01-17T14:07:01.226Z,3.70
2023-01-17T14:09:42.497Z,3.33
2023-01-17T14:12:31.872Z,3.80
2023-01-17T14:15:02.375Z,5.10
2023-01-17T14:17:48.187Z,4.83
2023-01-17T14:20:58.677Z,6.57
2023-01-17T14:23:36.483Z,5.28
2023-01-17T14:26:20.297Z,3.95
2023-01-17T14:28:48.360Z,4.00
2023-01-17T14:31:19.126Z,3.90
2023-01-17T14:33:47.576Z,4.47
2023-01-17T14:36:25.006Z,4.70
2023-01-17T14:38:54.644Z,4.33
2023-01-17T14:41:25.746Z,4.50
2023-01-17T14:43:54.331Z,4.67
2023-01-17T14:46:28.556Z,4.55
2023-01-17T14:49:02.252Z,4.17
2023-01-17T14:51:30.357Z,3.70
2023-01-17T14:54:02.353Z,3.80
2023-01-17T14:56:32.098Z,3.50
2023-01-17T14:59:14.463Z,3.45
2023-01-17T15:01:45.025Z,3.55
2023-01-17T15:04:26.400Z,5.27
2023-01-17T15:06:55.821Z,3.77
2023-01-17T15:09:28.181Z,3.30
2023-01-17T15:11:58.091Z,3.33
2023-01-17T15:14:29.076Z,3.60
2023-01-17T15:16:57.535Z,4.27
2023-01-17T15:19:25.596Z,4.23
2023-01-17T15:21:55.705Z,4.23
2023-01-17T15:24:28.855Z,5.00
2023-01-17T15:26:57.425Z,4.67
2023-01-17T15:29:27.564Z,4.80
2023-01-17T15:31:58.286Z,4.33
2023-01-17T15:34:31.811Z,4.87
2023-01-17T15:37:01.756Z,5.60
2023-01-17T15:39:34.278Z,5.37
2023-01-17T15:42:06.497Z,4.60
2023-01-17T15:44:48.061Z,5.80
2023-01-17T15:47:29.954Z,5.63
2023-01-17T15:49:58.381Z,4.77
2023-01-17T15:52:26.754Z,5.57
2023-01-17T15:55:00.490Z,6.00
2023-01-17T15:57:30.648Z,5.87
2023-01-17T16:00:07.080Z,5.50
2023-01-17T16:02:43.307Z,6.77
2023-01-17T16:05:43.804Z,7.10
2023-01-17T16:08:38.754Z,7.53
2023-01-17T16:11:12.029Z,6.03
2023-01-17T16:13:42.361Z,5.47
2023-01-17T16:16:23.167Z,5.87
2023-01-17T16:18:59.865Z,5.97
2023-01-17T16:21:29.442Z,5.73
2023-01-17T16:23:58.166Z,7.10
2023-01-17T16:26:29.268Z,8.97
2023-01-17T16:28:57.676Z,9.77
2023-01-17T16:31:25.855Z,11.43
2023-01-17T16:33:54.070Z,12.93
2023-01-17T16:36:23.119Z,9.97
2023-01-17T16:38:53.253Z,7.90
2023-01-17T16:41:21.819Z,11.63
2023-01-17T16:43:59.379Z,10.93
2023-01-17T16:46:27.860Z,12.57
2023-01-17T16:48:56.191Z,14.83
2023-01-17T16:51:24.282Z,12.13
2023-01-17T16:53:52.506Z,13.50
2023-01-17T16:56:21.053Z,28.75
2023-01-17T16:58:49.207Z,25.70
2023-01-17T17:01:21.358Z,26.47
2023-01-17T17:03:49.808Z,14.73
2023-01-17T17:06:18.079Z,33.93
2023-01-17T17:08:46.131Z,9.60
2023-01-17T17:11:16.598Z,12.93
2023-01-17T17:13:45.896Z,12.33
2023-01-17T17:16:20.190Z,12.03
2023-01-17T17:18:55.128Z,10.50
2023-01-17T17:21:23.335Z,9.43
2023-01-17T17:23:56.782Z,10.43
2023-01-17T17:26:26.836Z,9.93
2023-01-17T17:28:55.778Z,10.02
2023-01-17T17:31:25.462Z,11.23
2023-01-17T17:33:53.576Z,11.80
2023-01-17T17:36:21.622Z,16.13
2023-01-17T17:38:51.853Z,14.73
2023-01-17T17:41:21.810Z,12.07
2023-01-17T17:43:51.303Z,13.13
2023-01-17T17:46:20.794Z,9.95
2023-01-17T17:48:50.585Z,8.67
2023-01-17T17:51:27.033Z,8.80
2023-01-17T17:53:56.265Z,8.25
2023-01-17T17:56:24.914Z,7.90
2023-01-17T17:58:53.125Z,8.02
2023-01-17T18:01:23.044Z,7.77
2023-01-17T18:03:52.755Z,8.13
2023-01-17T18:06:21.273Z,18.87
2023-01-17T18:08:49.426Z,32.30
2023-01-17T18:11:20.308Z,21.93
2023-01-17T18:13:50.526Z,29.07
2023-01-17T18:16:20.665Z,20.93
2023-01-17T18:18:51.464Z,15.95
2023-01-17T18:21:23.843Z,10.68
2023-01-17T18:23:54.853Z,11.73
2023-01-17T18:26:24.580Z,12.30
2023-01-17T18:28:54.136Z,14.75
2023-01-17T18:31:24.266Z,12.67
2023-01-17T18:33:52.509Z,14.05
2023-01-17T18:36:23.501Z,13.07
2023-01-17T18:38:52.131Z,12.27
2023-01-17T18:41:21.695Z,12.97
2023-01-17T18:43:49.916Z,14.13
2023-01-17T18:46:19.481Z,14.90
2023-01-17T18:48:47.886Z,16.10
2023-01-17T18:51:18.611Z,18.00
2023-01-17T18:53:48.694Z,18.87
2023-01-17T18:56:20.175Z,16.40
2023-01-17T18:58:50.317Z,12.70
2023-01-17T19:01:20.532Z,11.77
2023-01-17T19:03:51.839Z,12.25
2023-01-17T19:06:21.986Z,12.38
2023-01-17T19:08:52.630Z,14.10
2023-01-17T19:11:21.920Z,13.60
2023-01-17T19:13:50.409Z,12.70
2023-01-17T19:16:21.142Z,15.30
2023-01-17T19:18:49.680Z,17.13
2023-01-17T19:21:19.783Z,15.70
2023-01-17T19:23:48.228Z,20.43
2023-01-17T19:26:20.138Z,15.93
2023-01-17T19:28:49.485Z,14.57
2023-01-17T19:31:20.476Z,17.03
2023-01-17T19:33:49.766Z,15.70
2023-01-17T19:36:20.666Z,15.93
2023-01-17T19:39:02.877Z,16.03
2023-01-17T19:41:34.791Z,18.57
2023-01-17T19:44:04.638Z,17.17
2023-01-17T19:46:33.141Z,16.05
2023-01-17T19:49:01.761Z,17.17
2023-01-17T19:51:30.069Z,20.03
2023-01-17T19:53:59.242Z,23.67
2023-01-17T19:56:28.092Z,20.80
2023-01-17T19:59:01.174Z,19.80
2023-01-17T20:01:31.674Z,17.07
2023-01-17T20:04:01.069Z,15.88
2023-01-17T20:06:35.235Z,15.77
2023-01-17T20:09:04.267Z,16.33
2023-01-17T20:11:32.421Z,15.73
2023-01-17T20:14:01.969Z,15.70
2023-01-17T20:16:31.546Z,17.77
2023-01-17T20:19:00.273Z,22.67
2023-01-17T20:21:30.441Z,20.17
2023-01-17T20:24:00.317Z,17.17
2023-01-17T20:26:35.019Z,17.47
2023-01-17T20:29:10.662Z,16.17
2023-01-17T20:31:40.270Z,15.10
2023-01-17T20:34:10.683Z,12.93
2023-01-17T20:36:39.403Z,17.30
2023-01-17T20:39:09.046Z,19.97
2023-01-17T20:41:39.800Z,22.83
2023-01-17T20:44:12.827Z,26.50
2023-01-17T20:46:42.111Z,18.53
2023-01-17T20:49:15.054Z,18.57
2023-01-17T20:51:44.464Z,19.60
2023-01-17T20:54:14.350Z,19.30
2023-01-17T20:56:42.783Z,18.23
2023-01-17T20:59:15.108Z,22.73
2023-01-17T21:01:44.934Z,20.87
2023-01-17T21:04:14.906Z,28.73
2023-01-17T21:06:44.033Z,21.93
2023-01-17T21:09:14.306Z,22.83
2023-01-17T21:11:42.554Z,23.10
2023-01-17T21:14:10.772Z,25.07
2023-01-17T21:16:40.564Z,25.40
2023-01-17T21:19:12.010Z,20.77
2023-01-17T21:21:40.500Z,23.70
2023-01-17T21:24:08.745Z,21.87
2023-01-17T21:26:38.919Z,25.73
2023-01-17T21:29:07.277Z,21.67
2023-01-17T21:31:36.861Z,23.67
2023-01-17T21:34:08.550Z,21.30
2023-01-17T21:36:38.906Z,20.17
2023-01-17T21:39:08.787Z,19.90
2023-01-17T21:41:39.706Z,20.53
2023-01-17T21:44:11.885Z,20.43
2023-01-17T21:46:41.478Z,21.20
2023-01-17T21:49:12.239Z,19.88
2023-01-17T21:51:56.888Z,21.17
2023-01-17T21:54:40.568Z,22.07
2023-01-17T21:57:26.286Z,22.00
2023-01-17T21:59:54.347Z,20.98
2023-01-17T22:02:22.390Z,21.07
2023-01-17T22:04:51.925Z,20.50
2023-01-17T22:07:19.956Z,20.73
2023-01-17T22:09:48.068Z,19.37
2023-01-17T22:12:16.272Z,20.97
2023-01-17T22:14:44.259Z,19.63
2023-01-17T22:17:12.351Z,20.43
2023-01-17T22:19:40.341Z,19.00
2023-01-17T22:22:09.780Z,19.33
2023-01-17T22:24:37.911Z,22.23
2023-01-17T22:27:09.947Z,20.20
2023-01-17T22:29:38.274Z,19.23
2023-01-17T22:32:06.422Z,18.70
2023-01-17T22:34:34.400Z,18.73
2023-01-17T22:37:04.067Z,19.60
2023-01-17T22:39:33.425Z,18.17
2023-01-17T22:42:01.450Z,18.80
2023-01-17T22:44:29.547Z,19.40
2023-01-17T22:46:57.808Z,19.70
2023-01-17T22:49:25.989Z,17.70
2023-01-17T22:51:54.014Z,20.08
2023-01-17T22:54:22.564Z,19.17
2023-01-17T22:56:51.924Z,19.27
2023-01-17T22:59:19.988Z,18.60
2023-01-17T23:01:48.149Z,19.10
2023-01-17T23:04:17.299Z,20.00
2023-01-17T23:06:45.487Z,20.05
2023-01-17T23:09:17.337Z,19.93
2023-01-17T23:11:47.445Z,18.85
2023-01-17T23:14:19.398Z,19.40
2023-01-17T23:17:06.360Z,19.67
2023-01-17T23:19:36.556Z,18.70
2023-01-17T23:22:19.443Z,19.57
2023-01-17T23:24:52.688Z,19.30
2023-01-17T23:27:40.803Z,18.90
2023-01-17T23:30:13.412Z,18.97
2023-01-17T23:32:45.267Z,16.13
2023-01-17T23:35:13.327Z,16.83
2023-01-17T23:37:59.003Z,16.00
2023-01-17T23:40:27.179Z,14.27
2023-01-17T23:43:12.503Z,14.63
2023-01-17T23:45:42.110Z,13.47
2023-01-17T23:48:10.856Z,12.13
2023-01-17T23:50:39.845Z,11.50
2023-01-17T23:53:08.538Z,12.90
2023-01-17T23:55:38.593Z,13.33
2023-01-17T23:58:07.629Z,14.17
